Time;durP1;ratioP1;P1;durP2;ratioP2;P2;SDS_P1;SDS_P2;PMS_P1;PMS_P2;Temp;Humidity;BMP_temperature;BMP_pressure;BME280_temperature;BME280_humidity;BME280_pressure;Samples;Min_cycle;Max_cycle;Signal;HPM_P1;HPM_P2
2021/10/10 00:02:13;;;;;;;22.03;11.33;;;;;;;7.96;100.00;102581.06;7398353;19;20434;-53
2021/10/10 00:04:45;;;;;;;19.47;9.90;;;;;;;7.90;100.00;102582.25;7401413;19;20428;-55
2021/10/10 00:07:15;;;;;;;23.30;12.33;;;;;;;8.02;100.00;102572.06;7397392;19;20503;-53
2021/10/10 00:09:44;;;;;;;30.13;14.90;;;;;;;8.00;100.00;102579.66;7402424;19;20479;-51
2021/10/10 00:12:14;;;;;;;29.30;14.87;;;;;;;7.95;100.00;102578.41;7398563;19;20502;-53
2021/10/10 00:14:43;;;;;;;17.40;10.33;;;;;;;7.89;100.00;102578.78;7401220;19;20507;-52
2021/10/10 00:17:15;;;;;;;17.83;10.10;;;;;;;7.80;100.00;102572.91;7397781;19;20775;-49
2021/10/10 00:19:47;;;;;;;18.30;9.60;;;;;;;7.75;100.00;102574.19;7402789;19;20387;-52
2021/10/10 00:22:17;;;;;;;16.67;9.30;;;;;;;7.83;100.00;102578.28;7370292;19;20439;-52
2021/10/10 00:24:47;;;;;;;20.00;11.57;;;;;;;7.87;100.00;102575.19;7401130;19;20439;-53
2021/10/10 00:27:16;;;;;;;19.87;9.70;;;;;;;7.80;100.00;102570.34;7397481;19;20506;-50
2021/10/10 00:29:46;;;;;;;21.60;10.43;;;;;;;7.77;100.00;102573.53;7401985;19;20464;-49
2021/10/10 00:32:15;;;;;;;16.37;9.87;;;;;;;7.73;100.00;102576.63;7397665;19;20515;-53
2021/10/10 00:34:47;;;;;;;16.20;10.07;;;;;;;7.72;100.00;102569.69;7400613;19;20439;-48
2021/10/10 00:37:16;;;;;;;18.93;9.57;;;;;;;7.67;100.00;102571.88;7398005;19;20561;-49
2021/10/10 00:39:46;;;;;;;18.17;9.73;;;;;;;7.58;100.00;102565.97;7402270;19;20472;-49
2021/10/10 00:42:15;;;;;;;20.03;9.80;;;;;;;7.66;100.00;102564.97;7374805;19;20468;-50
2021/10/10 00:44:46;;;;;;;19.60;9.70;;;;;;;7.60;100.00;102567.03;7400225;19;20503;-51
2021/10/10 00:47:16;;;;;;;17.63;10.23;;;;;;;7.67;100.00;102565.84;7377587;19;20781;-49
2021/10/10 00:49:48;;;;;;;17.70;10.43;;;;;;;7.74;100.00;102573.28;7402106;19;20479;-50
2021/10/10 00:52:19;;;;;;;17.23;9.90;;;;;;;7.61;100.00;102566.25;7397892;19;20734;-50
2021/10/10 00:54:49;;;;;;;17.93;9.50;;;;;;;7.60;100.00;102564.44;7399839;19;20434;-56
2021/10/10 00:57:21;;;;;;;17.10;10.20;;;;;;;7.57;100.00;102554.81;7371741;19;20455;-53
2021/10/10 00:59:52;;;;;;;15.97;9.83;;;;;;;7.57;100.00;102553.91;7401667;19;20670;-53
2021/10/10 01:02:22;;;;;;;24.23;13.03;;;;;;;7.52;100.00;102560.31;7401284;19;20435;-53
2021/10/10 01:04:54;;;;;;;17.00;9.53;;;;;;;7.89;100.00;102547.06;7405995;19;20430;-50
2021/10/10 01:07:24;;;;;;;28.27;16.50;;;;;;;7.69;100.00;102544.63;7407212;19;20443;-55
2021/10/10 01:09:53;;;;;;;33.13;19.87;;;;;;;7.61;100.00;102548.25;7409053;19;20410;-55
2021/10/10 01:12:23;;;;;;;37.00;19.40;;;;;;;7.56;100.00;102546.97;7382126;19;20755;-53
2021/10/10 01:14:52;;;;;;;17.80;10.43;;;;;;;7.48;100.00;102548.03;7406192;19;20419;-54
2021/10/10 01:17:22;;;;;;;25.10;14.27;;;;;;;7.38;100.00;102551.50;7397991;19;20907;-50
2021/10/10 01:19:55;;;;;;;21.33;10.77;;;;;;;7.26;100.00;102551.34;7409045;19;20384;-54
2021/10/10 01:22:28;;;;;;;24.67;14.77;;;;;;;7.11;100.00;102546.72;7408057;19;20490;-53
2021/10/10 01:24:57;;;;;;;19.70;11.20;;;;;;;6.95;100.00;102554.78;7406163;19;20483;-55
2021/10/10 01:27:27;;;;;;;17.00;9.50;;;;;;;6.83;100.00;102546.91;7407642;19;20778;-50
2021/10/10 01:29:56;;;;;;;19.17;9.93;;;;;;;6.81;100.00;102545.03;7408574;19;20484;-55
2021/10/10 01:32:26;;;;;;;18.23;12.10;;;;;;;6.87;100.00;102545.56;7405425;19;20518;-55
2021/10/10 01:35:03;;;;;;;15.43;9.30;;;;;;;6.82;100.00;102545.13;7405507;19;20427;-50
2021/10/10 01:37:35;;;;;;;23.23;12.93;;;;;;;6.75;100.00;102540.25;7407178;19;20447;-52
2021/10/10 01:40:05;;;;;;;17.80;10.07;;;;;;;6.62;100.00;102539.19;7404480;19;20877;-50
2021/10/10 01:42:34;;;;;;;26.93;15.20;;;;;;;6.72;100.00;102540.00;7408094;19;20396;-54
2021/10/10 01:45:06;;;;;;;19.60;12.33;;;;;;;6.74;100.00;102534.25;7404533;19;20866;-52
2021/10/10 01:47:35;;;;;;;23.13;10.50;;;;;;;6.52;100.00;102536.63;7405957;19;20391;-49
2021/10/10 01:50:05;;;;;;;17.67;10.10;;;;;;;6.44;100.00;102537.59;7404526;19;20467;-54
2021/10/10 01:52:38;;;;;;;19.43;12.07;;;;;;;6.44;100.00;102535.03;7404861;19;20386;-53
2021/10/10 01:55:08;;;;;;;19.80;11.30;;;;;;;6.50;100.00;102533.00;7404291;19;20398;-52
2021/10/10 01:57:38;;;;;;;22.00;11.20;;;;;;;6.51;100.00;102527.09;7406852;19;20471;-54
2021/10/10 02:00:09;;;;;;;21.73;13.13;;;;;;;6.73;100.00;102526.41;7403441;19;20403;-55
2021/10/10 02:02:39;;;;;;;17.20;10.70;;;;;;;6.69;100.00;102537.16;7406979;19;20455;-55
2021/10/10 02:05:10;;;;;;;17.87;11.20;;;;;;;6.58;100.00;102532.00;7404244;19;20439;-55
2021/10/10 02:07:43;;;;;;;19.73;11.17;;;;;;;6.62;100.00;102534.06;7406452;19;20658;-55
2021/10/10 02:10:13;;;;;;;17.23;10.70;;;;;;;6.39;100.00;102536.28;7403995;19;20897;-53
2021/10/10 02:12:43;;;;;;;18.33;10.20;;;;;;;6.14;100.00;102527.34;7403932;19;20846;-51
2021/10/10 02:15:13;;;;;;;19.53;9.27;;;;;;;6.05;100.00;102529.13;7401017;19;20396;-53
2021/10/10 02:17:42;;;;;;;16.60;10.07;;;;;;;5.87;100.00;102528.31;7406224;19;20467;-54
2021/10/10 02:20:13;;;;;;;16.60;10.10;;;;;;;5.71;100.00;102534.66;7402971;19;20479;-51
2021/10/10 02:22:45;;;;;;;17.67;10.50;;;;;;;6.01;100.00;102524.44;7407171;19;20383;-53
2021/10/10 02:25:15;;;;;;;21.30;10.40;;;;;;;6.15;100.00;102528.25;7403807;19;20442;-49
2021/10/10 02:27:45;;;;;;;17.50;10.60;;;;;;;6.20;100.00;102526.97;7406160;19;20463;-54
2021/10/10 02:30:15;;;;;;;17.13;9.80;;;;;;;5.93;100.00;102524.66;7403095;19;20388;-51
2021/10/10 02:32:44;;;;;;;17.47;10.60;;;;;;;5.99;100.00;102520.84;7404598;19;20399;-52
2021/10/10 02:35:14;;;;;;;19.10;11.60;;;;;;;5.90;100.00;102524.38;7403242;19;20459;-49
2021/10/10 02:37:46;;;;;;;13.87;8.87;;;;;;;5.80;100.00;102517.53;7405454;19;20400;-49
2021/10/10 02:40:15;;;;;;;18.03;9.63;;;;;;;5.81;100.00;102521.00;7395300;19;20399;-54
2021/10/10 02:42:45;;;;;;;15.40;9.10;;;;;;;5.65;100.00;102519.59;7406955;19;20407;-55
2021/10/10 02:45:14;;;;;;;14.87;9.27;;;;;;;5.51;100.00;102509.78;7403068;19;20463;-54
2021/10/10 02:47:44;;;;;;;15.00;9.33;;;;;;;5.79;100.00;102513.16;7405913;19;20448;-55
2021/10/10 02:50:13;;;;;;;16.27;9.50;;;;;;;5.80;100.00;102514.97;7402578;19;20682;-53
2021/10/10 02:52:45;;;;;;;15.70;9.70;;;;;;;5.80;100.00;102507.28;7404563;19;20467;-54
2021/10/10 02:55:15;;;;;;;24.33;13.53;;;;;;;5.65;100.00;102504.25;7402885;19;20388;-55
2021/10/10 02:57:44;;;;;;;19.13;10.20;;;;;;;5.75;100.00;102505.09;7405495;19;20407;-54
2021/10/10 03:00:14;;;;;;;18.30;10.63;;;;;;;5.85;100.00;102507.69;7401644;19;20396;-54
2021/10/10 03:02:43;;;;;;;22.17;11.97;;;;;;;5.85;100.00;102507.69;7405244;19;20399;-55
2021/10/10 03:05:13;;;;;;;31.73;10.27;;;;;;;5.58;100.00;102506.13;7389774;19;20390;-54
2021/10/10 03:07:45;;;;;;;19.87;10.17;;;;;;;5.62;100.00;102508.19;7404534;19;20391;-55
2021/10/10 03:10:15;;;;;;;21.10;11.63;;;;;;;5.73;100.00;102501.47;7401492;19;20400;-55
2021/10/10 03:12:44;;;;;;;20.20;10.67;;;;;;;5.78;100.00;102503.69;7399422;19;20395;-55
2021/10/10 03:15:14;;;;;;;23.37;11.60;;;;;;;5.57;100.00;102509.44;7384756;19;20724;-55
2021/10/10 03:17:44;;;;;;;36.37;17.63;;;;;;;5.57;100.00;102500.09;7400726;19;20451;-54
2021/10/10 03:20:14;;;;;;;22.07;13.27;;;;;;;5.25;100.00;102499.00;7397982;19;20402;-55
2021/10/10 03:22:46;;;;;;;19.43;11.40;;;;;;;5.32;100.00;102489.31;7400947;19;20456;-53
2021/10/10 03:25:15;;;;;;;25.40;14.50;;;;;;;5.38;100.00;102497.53;7397783;19;20399;-55
2021/10/10 03:27:45;;;;;;;26.90;12.90;;;;;;;5.33;100.00;102494.56;7400441;19;20408;-55
2021/10/10 03:30:14;;;;;;;27.00;14.70;;;;;;;5.32;100.00;102489.31;7382124;19;20378;-57
2021/10/10 03:32:44;;;;;;;25.67;12.90;;;;;;;5.34;100.00;102495.47;7400134;19;20392;-56
2021/10/10 03:35:13;;;;;;;24.73;13.20;;;;;;;5.41;100.00;102492.69;7397228;19;20395;-56
2021/10/10 03:37:45;;;;;;;43.33;20.93;;;;;;;5.41;100.00;102482.47;7400280;19;20392;-55
2021/10/10 03:40:15;;;;;;;25.93;13.93;;;;;;;5.33;100.00;102483.44;7397571;19;20363;-50
2021/10/10 03:42:45;;;;;;;18.70;11.83;;;;;;;5.49;100.00;102475.47;7400429;19;20448;-50
2021/10/10 03:45:14;;;;;;;27.53;15.50;;;;;;;5.53;100.00;102470.75;7398148;19;20398;-48
2021/10/10 03:47:44;;;;;;;24.97;13.80;;;;;;;5.49;100.00;102472.91;7400472;19;20439;-54
2021/10/10 03:50:13;;;;;;;47.47;20.70;;;;;;;5.37;100.00;102470.13;7377293;19;20424;-55
2021/10/10 03:52:45;;;;;;;51.77;23.90;;;;;;;5.18;100.00;102462.47;7399524;19;20378;-52
2021/10/10 03:55:35;;;;;;;19.47;12.20;;;;;;;4.98;100.00;102464.09;7396562;19;20374;-51
2021/10/10 03:58:06;;;;;;;29.70;16.10;;;;;;;4.92;100.00;102458.41;7400145;19;20388;-54
2021/10/10 04:00:37;;;;;;;18.83;11.67;;;;;;;4.86;100.00;102464.75;7395442;19;20482;-53
2021/10/10 04:03:09;;;;;;;18.03;10.70;;;;;;;5.00;100.00;102457.47;7401875;19;20435;-49
2021/10/10 04:05:44;;;;;;;18.43;10.50;;;;;;;5.11;100.00;102456.78;7393581;19;20414;-51
2021/10/10 04:08:16;;;;;;;18.57;11.10;;;;;;;5.07;100.00;102447.03;7399604;19;20368;-52
2021/10/10 04:10:46;;;;;;;16.77;10.10;;;;;;;4.98;100.00;102439.41;7393045;19;20426;-50
2021/10/10 04:13:15;;;;;;;18.10;10.70;;;;;;;4.86;100.00;102451.06;7398322;19;20439;-50
2021/10/10 04:15:45;;;;;;;17.87;11.50;;;;;;;4.85;100.00;102447.63;7392145;19;20742;-49
2021/10/10 04:18:14;;;;;;;23.80;12.27;;;;;;;4.90;100.00;102455.72;7399049;19;20382;-49
2021/10/10 04:20:44;;;;;;;17.87;11.13;;;;;;;4.82;100.00;102454.13;7396946;19;20431;-48
2021/10/10 04:23:13;;;;;;;26.17;12.67;;;;;;;4.68;100.00;102450.28;7398891;19;20667;-51
2021/10/10 04:25:45;;;;;;;32.33;16.30;;;;;;;4.67;100.00;102454.47;7391912;19;20501;-51
2021/10/10 04:28:14;;;;;;;30.80;14.97;;;;;;;4.68;100.00;102448.59;7398976;19;20392;-51
2021/10/10 04:30:44;;;;;;;20.20;11.73;;;;;;;4.81;100.00;102448.09;7392794;19;20422;-54
2021/10/10 04:33:13;;;;;;;21.60;12.00;;;;;;;4.77;100.00;102443.44;7397891;19;20423;-51
2021/10/10 04:35:43;;;;;;;41.40;20.30;;;;;;;4.80;100.00;102447.94;7392536;19;20852;-52
2021/10/10 04:38:13;;;;;;;25.50;14.03;;;;;;;4.78;100.00;102441.78;7404991;19;20392;-52
2021/10/10 04:40:46;;;;;;;24.33;13.13;;;;;;;4.76;100.00;102439.09;7399834;19;20419;-52
2021/10/10 04:43:15;;;;;;;23.07;13.07;;;;;;;4.79;100.00;102435.91;7405816;19;20668;-54
2021/10/10 04:45:45;;;;;;;28.57;14.00;;;;;;;4.62;100.00;102431.81;7398843;19;20411;-52
2021/10/10 04:48:14;;;;;;;23.43;13.10;;;;;;;4.64;100.00;102430.28;7406233;19;20388;-52
2021/10/10 04:50:44;;;;;;;22.17;12.40;;;;;;;4.54;100.00;102431.06;7400532;19;20411;-49
2021/10/10 04:53:13;;;;;;;26.67;14.10;;;;;;;4.55;100.00;102426.13;7404549;19;20427;-50
2021/10/10 04:55:45;;;;;;;24.03;13.30;;;;;;;4.60;100.00;102423.97;7398603;19;20568;-52
2021/10/10 04:58:14;;;;;;;23.93;12.83;;;;;;;4.59;100.00;102418.00;7405907;19;20387;-50
2021/10/10 05:00:44;;;;;;;24.63;12.77;;;;;;;4.56;100.00;102420.25;7399051;19;20410;-50
2021/10/10 05:03:13;;;;;;;18.07;10.13;;;;;;;4.52;100.00;102410.47;7406463;19;20391;-50
2021/10/10 05:05:43;;;;;;;24.70;11.77;;;;;;;4.56;100.00;102407.47;7402464;19;20442;-52
2021/10/10 05:08:13;;;;;;;20.10;11.37;;;;;;;5.75;100.00;102403.50;7405381;19;20392;-51
2021/10/10 05:10:42;;;;;;;27.57;13.93;;;;;;;5.83;100.00;102396.50;7398797;19;20399;-50
2021/10/10 05:13:14;;;;;;;31.10;18.23;;;;;;;5.23;100.00;102389.56;7404361;19;20422;-54
2021/10/10 05:15:44;;;;;;;44.40;23.93;;;;;;;4.99;100.00;102387.47;7398054;19;20487;-52
2021/10/10 05:18:13;;;;;;;29.27;16.93;;;;;;;4.83;100.00;102394.53;7405319;19;20415;-52
2021/10/10 05:20:43;;;;;;;29.20;15.60;;;;;;;4.73;100.00;102383.44;7400330;19;20403;-50
2021/10/10 05:23:15;;;;;;;32.50;17.70;;;;;;;4.72;100.00;102379.09;7404555;19;20883;-52
2021/10/10 05:25:44;;;;;;;44.13;21.47;;;;;;;4.58;100.00;102379.50;7397854;19;20398;-49
2021/10/10 05:28:16;;;;;;;37.13;21.70;;;;;;;4.56;100.00;102378.47;7404885;19;20400;-51
2021/10/10 05:30:46;;;;;;;31.03;18.10;;;;;;;4.51;100.00;102382.25;7398398;19;20498;-49
2021/10/10 05:33:15;;;;;;;22.30;13.50;;;;;;;4.49;100.00;102388.84;7403936;19;20473;-48
2021/10/10 05:35:45;;;;;;;31.10;16.23;;;;;;;4.45;100.00;102388.56;7398638;19;20415;-49
2021/10/10 05:38:15;;;;;;;25.67;15.77;;;;;;;4.49;100.00;102389.75;7405098;19;20694;-48
2021/10/10 05:40:44;;;;;;;34.83;16.43;;;;;;;4.44;100.00;102389.34;7398877;19;20447;-53
2021/10/10 05:43:17;;;;;;;31.60;16.93;;;;;;;4.38;100.00;102385.31;7403769;19;20417;-52
2021/10/10 05:45:46;;;;;;;33.97;18.60;;;;;;;4.40;100.00;102392.34;7397098;19;20681;-50
2021/10/10 05:48:15;;;;;;;25.57;13.80;;;;;;;4.41;100.00;102391.59;7401559;19;20367;-49
2021/10/10 05:50:45;;;;;;;34.03;17.20;;;;;;;4.46;100.00;102395.47;7400984;19;20487;-50
2021/10/10 05:53:14;;;;;;;29.70;15.00;;;;;;;4.64;100.00;102387.72;7403138;19;20426;-50
2021/10/10 05:55:44;;;;;;;30.03;15.03;;;;;;;4.60;100.00;102393.31;7394245;19;20510;-53
2021/10/10 05:58:20;;;;;;;29.73;16.23;;;;;;;4.73;100.00;102380.88;7407700;19;20644;-51
2021/10/10 06:00:52;;;;;;;25.10;13.97;;;;;;;4.85;100.00;102375.09;7397666;19;20473;-52
2021/10/10 06:03:21;;;;;;;23.50;13.43;;;;;;;4.84;100.00;102383.53;7402627;19;20403;-49
2021/10/10 06:05:51;;;;;;;22.03;13.50;;;;;;;4.84;100.00;102380.97;7379058;19;20727;-48
2021/10/10 06:08:21;;;;;;;23.13;13.13;;;;;;;4.73;100.00;102382.56;7402444;19;20444;-53
2021/10/10 06:10:50;;;;;;;31.90;17.40;;;;;;;4.85;100.00;102375.09;7395885;19;20679;-55
2021/10/10 06:13:31;;;;;;;50.17;24.70;;;;;;;4.86;100.00;102374.31;7405795;19;20475;-52
2021/10/10 06:16:03;;;;;;;44.40;22.40;;;;;;;4.85;100.00;102376.00;7394286;19;20892;-53
2021/10/10 06:18:33;;;;;;;36.53;19.07;;;;;;;4.95;100.00;102362.38;7402978;19;20412;-54
2021/10/10 06:21:02;;;;;;;30.27;16.40;;;;;;;5.16;100.00;102359.94;7398819;19;20966;-53
2021/10/10 06:23:32;;;;;;;22.10;12.67;;;;;;;5.15;100.00;102358.16;7402263;19;20395;-55
2021/10/10 06:26:01;;;;;;;20.43;11.73;;;;;;;5.12;100.00;102352.75;7395775;19;20510;-55
2021/10/10 06:28:31;;;;;;;20.60;11.83;;;;;;;4.97;100.00;102358.31;7402808;19;20386;-54
2021/10/10 06:31:03;;;;;;;23.10;13.70;;;;;;;5.01;100.00;102356.91;7397940;19;20499;-55
2021/10/10 06:33:32;;;;;;;25.27;14.10;;;;;;;5.02;100.00;102355.25;7401915;19;20434;-55
2021/10/10 06:36:02;;;;;;;26.53;13.80;;;;;;;4.99;100.00;102356.75;7376638;19;21204;-52
2021/10/10 06:38:31;;;;;;;23.43;13.17;;;;;;;5.08;100.00;102358.38;7401895;19;20634;-52
2021/10/10 06:41:00;;;;;;;21.97;13.33;;;;;;;5.20;100.00;102358.56;7398617;19;20466;-52
2021/10/10 06:43:30;;;;;;;24.73;14.83;;;;;;;5.63;100.00;102361.44;7401727;19;20475;-54
2021/10/10 06:45:59;;;;;;;60.43;31.00;;;;;;;6.35;100.00;102354.00;7394602;19;20478;-56
2021/10/10 06:48:31;;;;;;;104.57;49.27;;;;;;;6.67;100.00;102361.69;7402170;19;20390;-54
2021/10/10 06:51:01;;;;;;;17.87;10.87;;;;;;;6.06;100.00;102367.78;7396767;19;20420;-52
2021/10/10 06:53:30;;;;;;;18.93;10.93;;;;;;;5.73;100.00;102370.84;7401021;19;20434;-54
2021/10/10 06:56:04;;;;;;;20.33;11.03;;;;;;;5.64;100.00;102370.97;7394607;19;20434;-55
2021/10/10 06:58:33;;;;;;;16.57;10.53;;;;;;;5.54;100.00;102375.25;7401751;19;20437;-54
2021/10/10 07:01:03;;;;;;;21.43;12.37;;;;;;;5.63;100.00;102371.69;7394016;19;20769;-55
2021/10/10 07:03:36;;;;;;;17.70;11.43;;;;;;;5.65;100.00;102368.50;7401875;19;20431;-56
2021/10/10 07:06:06;;;;;;;20.23;11.53;;;;;;;5.63;100.00;102371.69;7395073;19;20887;-54
2021/10/10 07:08:35;;;;;;;23.00;12.10;;;;;;;5.76;100.00;102372.03;7402619;19;20866;-54
2021/10/10 07:11:05;;;;;;;22.40;12.53;;;;;;;5.74;100.00;102368.41;7394015;19;20427;-54
2021/10/10 07:13:35;;;;;;;21.07;12.40;;;;;;;5.79;100.00;102364.59;7400249;19;20892;-55
2021/10/10 07:16:04;;;;;;;20.63;12.13;;;;;;;5.85;100.00;102363.34;7393234;19;20402;-53
2021/10/10 07:18:45;;;;;;;45.53;23.17;;;;;;;5.86;100.00;102365.13;7400863;19;20386;-51
2021/10/10 07:21:28;;;;;;;50.97;26.87;;;;;;;6.12;100.00;102374.19;7395947;19;20387;-49
2021/10/10 07:24:51;;;;;;;24.63;13.20;;;;;;;6.25;100.00;102371.91;7399789;19;20499;-51
2021/10/10 07:26:48;;;;;;;27.97;12.90;;;;;;;6.37;100.00;102382.34;7370468;19;20483;-55
2021/10/10 07:29:18;;;;;;;27.87;15.27;;;;;;;6.41;100.00;102373.22;7400682;19;20463;-49
2021/10/10 07:31:47;;;;;;;28.70;14.57;;;;;;;6.37;100.00;102366.94;7393475;19;20778;-49
2021/10/10 07:34:19;;;;;;;24.77;13.73;;;;;;;6.50;100.00;102374.00;7399115;19;20511;-50
2021/10/10 07:36:49;;;;;;;21.17;12.60;;;;;;;6.53;100.00;102365.66;7394427;19;20432;-49
2021/10/10 07:39:19;;;;;;;49.87;20.43;;;;;;;6.67;100.00;102361.69;7400428;19;20395;-48
2021/10/10 07:41:49;;;;;;;23.67;12.07;;;;;;;6.73;100.00;102357.97;7393341;19;20419;-52
2021/10/10 07:44:19;;;;;;;45.30;16.50;;;;;;;6.93;100.00;102355.25;7400277;19;20422;-48
2021/10/10 07:46:55;;;;;;;19.43;11.97;;;;;;;6.88;100.00;102352.31;7392383;19;20419;-54
2021/10/10 07:49:27;;;;;;;22.33;12.07;;;;;;;6.92;100.00;102344.09;7402537;19;20833;-53
2021/10/10 07:51:57;;;;;;;21.43;11.53;;;;;;;7.09;100.00;102347.16;7396387;19;20889;-50
2021/10/10 07:54:26;;;;;;;18.60;10.73;;;;;;;7.10;100.00;102347.28;7398308;19;20444;-52
2021/10/10 07:56:56;;;;;;;24.03;12.30;;;;;;;7.30;100.00;102343.75;7391771;19;20905;-53
2021/10/10 07:59:25;;;;;;;28.90;16.70;;;;;;;7.53;100.00;102346.34;7403264;19;20467;-51
2021/10/10 08:01:55;;;;;;;22.70;13.20;;;;;;;7.56;100.00;102351.75;7397252;19;20451;-54
2021/10/10 08:04:25;;;;;;;36.50;22.00;;;;;;;7.75;100.00;102348.94;7400957;19;20420;-51
2021/10/10 08:06:58;;;;;;;45.37;24.57;;;;;;;8.00;100.00;102350.00;7394172;19;20423;-52
2021/10/10 08:09:27;;;;;;;52.73;30.40;;;;;;;8.17;100.00;102354.78;7401667;19;20402;-51
2021/10/10 08:11:57;;;;;;;36.37;21.00;;;;;;;8.44;100.00;102349.03;7392735;19;20881;-52
2021/10/10 08:14:26;;;;;;;19.83;12.00;;;;;;;8.18;100.00;102355.66;7398167;19;20431;-50
2021/10/10 08:16:55;;;;;;;23.33;12.07;;;;;;;8.03;100.00;102361.41;7389642;19;20503;-53
2021/10/10 08:19:25;;;;;;;20.50;11.77;;;;;;;7.98;100.00;102360.16;7399369;19;20416;-53
2021/10/10 08:21:54;;;;;;;22.57;13.90;;;;;;;8.21;100.00;102367.06;7394310;19;20741;-52
2021/10/10 08:24:29;;;;;;;21.37;12.40;;;;;;;8.16;100.00;102355.53;7402355;19;20453;-52
2021/10/10 08:26:59;;;;;;;20.80;11.37;;;;;;;8.15;100.00;102358.88;7368961;19;20450;-56
2021/10/10 08:29:28;;;;;;;17.33;10.73;;;;;;;8.06;100.00;102356.50;7398910;19;20451;-50
2021/10/10 08:31:57;;;;;;;19.80;11.37;;;;;;;8.26;100.00;102353.69;7391420;19;20411;-53
2021/10/10 08:34:27;;;;;;;26.03;13.00;;;;;;;8.52;100.00;102353.13;7397498;19;20919;-52
2021/10/10 08:36:56;;;;;;;20.13;12.90;;;;;;;8.46;100.00;102358.66;7372957;19;20725;-54
2021/10/10 08:39:29;;;;;;;19.50;12.03;;;;;;;8.21;100.00;102356.78;7398548;19;20387;-54
2021/10/10 08:42:00;;;;;;;19.30;11.33;;;;;;;8.22;100.00;102356.00;7392401;19;20434;-50
2021/10/10 08:44:33;;;;;;;24.97;12.77;;;;;;;8.30;100.00;102350.56;7397303;19;20487;-51
2021/10/10 08:47:06;;;;;;;17.67;10.70;;;;;;;8.18;100.00;102351.41;7390983;19;20459;-54
2021/10/10 08:49:39;;;;;;;17.93;11.10;;;;;;;8.33;100.00;102353.38;7402683;19;20411;-48
2021/10/10 08:52:10;;;;;;;22.13;12.03;;;;;;;8.63;100.00;102349.66;7395441;19;20454;-50
2021/10/10 08:54:58;;;;;;;18.23;11.00;;;;;;;8.83;100.00;102350.28;7400204;19;20439;-50
2021/10/10 08:57:28;;;;;;;23.77;13.60;;;;;;;8.86;100.00;102339.31;7390499;19;20418;-50
2021/10/10 09:00:04;;;;;;;28.53;14.00;;;;;;;8.78;100.00;102347.34;7398731;19;20395;-54
2021/10/10 09:02:35;;;;;;;25.93;12.50;;;;;;;8.94;100.00;102343.38;7397196;19;20440;-53
2021/10/10 09:05:08;;;;;;;20.47;12.20;;;;;;;9.35;100.00;102342.00;7393123;19;20388;-51
2021/10/10 09:07:38;;;;;;;21.37;12.03;;;;;;;9.42;100.00;102340.75;7397351;19;20436;-53
2021/10/10 09:10:27;;;;;;;20.73;11.40;;;;;;;9.61;100.00;102330.09;7391399;19;20415;-53
2021/10/10 09:13:06;;;;;;;21.17;11.43;;;;;;;9.74;100.00;102329.25;7398797;19;20941;-51
2021/10/10 09:15:37;;;;;;;20.07;10.80;;;;;;;9.85;100.00;102330.91;7389334;19;20415;-51
2021/10/10 09:18:08;;;;;;;18.93;10.80;;;;;;;9.93;100.00;102339.19;7401495;19;20471;-51
2021/10/10 09:20:39;;;;;;;17.60;11.00;;;;;;;9.83;100.00;102337.66;7394581;19;20742;-51
2021/10/10 09:23:10;;;;;;;25.20;13.27;;;;;;;10.20;100.00;102328.09;7403500;19;20478;-50
2021/10/10 09:25:55;;;;;;;16.20;10.77;;;;;;;10.43;100.00;102321.06;7400226;19;20538;-49
2021/10/10 09:28:25;;;;;;;21.43;11.37;;;;;;;10.60;100.00;102324.75;7408597;19;20845;-50
2021/10/10 09:30:57;;;;;;;19.53;11.30;;;;;;;10.64;100.00;102326.75;7401743;19;20445;-51
2021/10/10 09:33:38;;;;;;;17.67;11.30;;;;;;;10.58;100.00;102331.50;7407162;19;20439;-52
2021/10/10 09:36:14;;;;;;;17.60;10.30;;;;;;;10.64;100.00;102329.34;7400295;19;20457;-55
2021/10/10 09:38:47;;;;;;;20.50;11.07;;;;;;;11.01;100.00;102323.13;7408004;19;20390;-56
2021/10/10 09:41:26;;;;;;;17.30;10.90;;;;;;;10.94;100.00;102322.72;7399322;19;20802;-52
2021/10/10 09:44:00;;;;;;;20.27;10.83;;;;;;;10.70;100.00;102310.78;7407055;19;20426;-49
2021/10/10 09:46:30;;;;;;;17.67;11.17;;;;;;;10.76;100.00;102309.50;7400674;19;20519;-55
2021/10/10 09:49:00;;;;;;;20.00;11.33;;;;;;;11.07;100.00;102313.19;7407735;19;20452;-54
2021/10/10 09:51:34;;;;;;;419.63;254.83;;;;;;;11.18;100.00;102307.03;7399781;19;20432;-53
2021/10/10 09:54:05;;;;;;;17.40;10.00;;;;;;;11.07;100.00;102298.59;7406439;19;20415;-55
2021/10/10 09:56:37;;;;;;;20.63;11.03;;;;;;;11.18;100.00;102296.69;7400078;19;20519;-55
2021/10/10 09:59:07;;;;;;;16.57;9.70;;;;;;;10.99;100.00;102291.13;7407399;19;20392;-55
2021/10/10 10:01:41;;;;;;;22.40;11.60;;;;;;;10.92;100.00;102290.75;7395590;19;20518;-54
2021/10/10 10:04:11;;;;;;;17.60;10.30;;;;;;;10.76;100.00;102288.84;7405979;19;20411;-55
2021/10/10 10:06:43;;;;;;;22.30;13.50;;;;;;;10.88;100.00;102296.50;7400402;19;20785;-55
2021/10/10 10:09:14;;;;;;;23.40;13.07;;;;;;;10.93;100.00;102296.81;7406119;19;20407;-56
2021/10/10 10:11:48;;;;;;;17.03;10.40;;;;;;;10.74;100.00;102300.78;7396686;19;20431;-56
2021/10/10 10:14:19;;;;;;;23.60;15.10;;;;;;;10.72;100.00;102289.44;7401593;19;20471;-56
2021/10/10 10:16:50;;;;;;;26.20;16.43;;;;;;;11.05;100.00;102292.44;7399081;19;20463;-56
2021/10/10 10:19:22;;;;;;;20.80;9.50;;;;;;;11.20;100.00;102282.19;7403001;19;20388;-55
2021/10/10 10:21:54;;;;;;;22.10;12.30;;;;;;;11.10;100.00;102266.91;7399611;19;20419;-56
2021/10/10 10:24:25;;;;;;;22.70;11.83;;;;;;;11.25;100.00;102273.81;7401242;19;20415;-55
2021/10/10 10:26:57;;;;;;;22.40;13.80;;;;;;;11.17;100.00;102278.50;7398528;19;20931;-55
2021/10/10 10:29:29;;;;;;;16.17;9.93;;;;;;;11.01;100.00;102281.78;7402608;19;20380;-55
2021/10/10 10:32:00;;;;;;;25.73;14.50;;;;;;;11.08;100.00;102278.84;7367780;19;20672;-56
2021/10/10 10:34:34;;;;;;;23.80;14.27;;;;;;;11.08;100.00;102269.38;7401584;19;20424;-50
2021/10/10 10:37:06;;;;;;;18.33;10.10;;;;;;;10.99;100.00;102273.06;7396230;19;20445;-49
2021/10/10 10:39:47;;;;;;;24.53;10.40;;;;;;;11.25;100.00;102266.06;7402450;19;20403;-52
2021/10/10 10:42:41;;;;;;;16.50;8.70;;;;;;;11.20;100.00;102258.03;7402054;19;20403;-54
2021/10/10 10:45:21;;;;;;;18.80;9.37;;;;;;;10.95;100.00;102259.06;7398605;19;20391;-50
2021/10/10 10:47:53;;;;;;;21.83;12.10;;;;;;;10.87;100.00;102249.94;7406866;19;20886;-51
2021/10/10 10:50:23;;;;;;;17.40;10.17;;;;;;;10.98;100.00;102266.13;7371378;19;20415;-53
2021/10/10 10:52:59;;;;;;;25.30;10.17;;;;;;;11.02;100.00;102266.41;7400521;19;20409;-53
2021/10/10 10:55:30;;;;;;;22.47;9.83;;;;;;;10.91;100.00;102269.97;7395930;19;20422;-49
2021/10/10 10:58:04;;;;;;;18.30;9.70;;;;;;;10.90;100.00;102274.25;7402030;19;20647;-50
2021/10/10 11:00:35;;;;;;;17.20;10.03;;;;;;;10.92;100.00;102272.66;7395018;19;20684;-53
2021/10/10 11:03:16;;;;;;;17.10;10.20;;;;;;;11.20;100.00;102269.28;7401360;19;20415;-52
2021/10/10 11:05:49;;;;;;;18.17;10.50;;;;;;;11.44;100.00;102265.56;7397418;19;20415;-57
2021/10/10 11:08:35;;;;;;;25.80;11.90;;;;;;;11.53;100.00;102262.66;7401706;19;20482;-53
2021/10/10 11:11:15;;;;;;;18.23;10.30;;;;;;;11.62;100.00;102258.03;7393708;19;20489;-53
2021/10/10 11:13:49;;;;;;;19.63;10.60;;;;;;;11.64;100.00;102250.38;7400300;19;20487;-52
2021/10/10 11:16:20;;;;;;;15.13;10.53;;;;;;;11.69;100.00;102239.50;7393017;19;20445;-50
2021/10/10 11:18:52;;;;;;;21.97;10.57;;;;;;;11.55;100.00;102237.78;7401314;19;20478;-50
2021/10/10 11:21:23;;;;;;;19.57;11.77;;;;;;;11.64;100.00;102232.28;7394092;19;20941;-57
2021/10/10 11:23:55;;;;;;;23.73;11.90;;;;;;;11.68;100.00;102242.91;7400384;19;20408;-56
2021/10/10 11:26:30;;;;;;;17.07;10.30;;;;;;;11.33;100.00;102239.00;7392450;19;20434;-60
2021/10/10 11:29:03;;;;;;;22.10;12.00;;;;;;;11.07;100.00;102234.00;7401259;19;20421;-59